AirNav   Air Wisconsin Up To $57,000 Bonus
 
 584 users online  

GA21 Patterson Island Airport
Darien, Georgia, USA

GOING TO DARIEN?


FAA INFORMATION EFFECTIVE 19 MAY 2022

Location

FAA Identifier: GA21
Lat/Long: 31-27-40.8030N 081-20-19.3540W
31-27.680050N 081-20.322567W
31.4613342,-81.3387094
(estimated)
Elevation: 10 ft. / 3 m (estimated)
Variation: 04W (1985)
From city: 7 miles NE of DARIEN, GA
Time zone: UTC -4 (UTC -5 during Standard Time)
Zip code: 31319

Airport Operations

Airport use: Private use. Permission required prior to landing
Activation date: 11/1959
Control tower: no
ARTCC: JACKSONVILLE CENTER
FSS: MACON FLIGHT SERVICE STATION
Attendance: UNATNDD
Wind indicator: yes
Segmented circle: no

Airport Communications

WX AWOS-3 at BQK (14 nm SW): 124.175 (912-261-0531)
WX ASOS at SSI (19 nm S): 120.025 (912-638-7042)

Nearby radio navigation aids

VOR radial/distance  VOR name  Freq  Var
SSIr017/25.3BRUNSWICK VORTAC109.8004W
SVNr199/34.5HUNTER VOR/DME111.6002W

 
NDB name  Hdg/Dist  Freq  Var  ID
MC INTOSH162/23.926304WMOQ -- --- --.-

Airport Services

Airframe service: NONE
Powerplant service: NONE

Runway Information

Runway 11/29

Dimensions: 2000 x 200 ft. / 610 x 61 m
Surface: turf
RUNWAY 11  RUNWAY 29
Traffic pattern: leftleft

Airport Ownership and Management from official FAA records

Ownership: Privately-owned
Owner: PATTERSON ISLAND CO. LLC
400 GALLERIA PKWY, STE 1400, C/O DIVERSIFIED TRUST
ATLANTA, GA 30339
Phone (770) 226-5333
Manager: DIVERSIFIED TRUST
400 GALLERIA PKWY, STE 1400
ATLANTA, GA 30339
Phone (770) 226-5333

Additional Remarks

FOR CD CTC JACKSONVILLE APCH AT 904-741-0284.

Instrument Procedures

There are no published instrument procedures at GA21.

Some nearby airports with instrument procedures:

KBQK - Brunswick Golden Isles Airport (14 nm SW)
KSSI - St Simons Island Airport (19 nm S)
09J - Jekyll Island Airport (24 nm S)
KLHW - Wright Army Airfield (Fort Stewart)/Midcoast Regional Airport (28 nm NW)
KJES - Jesup-Wayne County Airport (28 nm W)
 
Loc | Ops | Rwys | IFR | FBO | Links
Com | Nav | Svcs | Stats | Notes
Area around GA21 (Patterson Island Airport)
 
Road maps at: MapQuest Bing Google
 
Aerial photo
No photo
 
Sectional chart

 
Airport distance calculator
Flying to Patterson Island Airport? Find the distance to fly.

From to GA21

Sunrise and sunset
Times for 24-May-2022
 Local
(UTC-4)
 Zulu
(UTC)
Morning civil twilight05:5809:58
Sunrise06:2510:25
Sunset20:1900:19
Evening civil twilight20:4600:46

Current date and time
Zulu (UTC)  24-May-2022 09:23:27
Local (UTC-4)  24-May-2022 05:23:27
 
METAR
KBQK 
14nm SW 
240855Z AUTO 16004KT 10SM CLR 24/23 A3003 RMK AO2 T02390233
KSSI 
19nm S 
240853Z AUTO 17006KT 10SM SCT011 26/23 A3003 RMK AO2 SLP170 T02560228 58008
KLHW 
27nm NW 
240856Z AUTO 00000KT 10SM CLR 20/19 A3001 RMK AO2 SLP165 T01980191 56014 $
KJES 
28nm W 
240855Z AUTO 00000KT 10SM BKN001 BKN005 20/18 A3006 RMK AO2
TAF
KSSI 
19nm S 
240540Z 2406/2506 17008KT P6SM SCT012 BKN250 TEMPO 2406/2410 BKN012 FM241400 17010KT P6SM SCT018 BKN100 TEMPO 2414/2417 BKN018 FM241800 14011G17KT P6SM SCT035 BKN250 FM250000 13008KT P6SM FEW030 SCT150 BKN250
NOTAMs
Click for the latest NOTAMs
NOTAMs are issued by the DoD/FAA and will open in a separate window not controlled by AirNav.

 

 
 

Would you like to see your business listed on this page?

 If your business provides an interesting product or service to pilots, flight crews, aircraft, or users of the Patterson Island Airport, you should consider listing it here.  To start the listing process, click on the button below
 
Add a business
 

Other Pages about Patterson Island Airport

Update a link
 
Copyright © AirNav, LLC. All rights reserved. Privacy Policy  Contact